createdAt,value
2019-03-02T00:00:12.140Z,20.80
2019-03-02T00:02:40.851Z,17.93
2019-03-02T00:05:09.282Z,20.03
2019-03-02T00:07:38.007Z,20.93
2019-03-02T00:10:10.008Z,22.90
2019-03-02T00:12:38.964Z,18.00
2019-03-02T00:15:09.038Z,20.63
2019-03-02T00:17:37.571Z,18.30
2019-03-02T00:20:07.047Z,20.67
2019-03-02T00:22:35.519Z,18.30
2019-03-02T00:25:05.627Z,19.70
2019-03-02T00:27:34.088Z,19.40
2019-03-02T00:30:02.534Z,21.70
2019-03-02T00:32:31.049Z,21.87
2019-03-02T00:34:59.744Z,20.73
2019-03-02T00:37:29.690Z,17.30
2019-03-02T00:39:58.422Z,18.30
2019-03-02T00:42:27.141Z,19.60
2019-03-02T00:44:55.885Z,21.23
2019-03-02T00:47:24.348Z,21.63
2019-03-02T00:49:52.792Z,19.17
2019-03-02T00:52:23.507Z,18.73
2019-03-02T00:54:58.242Z,18.17
2019-03-02T00:57:21.861Z,18.60
2019-03-02T00:59:50.283Z,17.90
2019-03-02T01:02:18.761Z,18.93
2019-03-02T01:04:47.195Z,18.07
2019-03-02T01:07:15.936Z,18.80
2019-03-02T01:09:46.543Z,19.67
2019-03-02T01:12:14.812Z,19.60
2019-03-02T01:14:43.243Z,17.97
2019-03-02T01:17:11.791Z,20.17
2019-03-02T01:19:40.227Z,19.60
2019-03-02T01:22:08.947Z,21.03
2019-03-02T01:24:38.946Z,25.00
2019-03-02T01:27:07.895Z,17.83
2019-03-02T01:29:36.406Z,17.67
2019-03-02T01:32:04.855Z,17.10
2019-03-02T01:34:33.290Z,18.83
2019-03-02T01:37:04.836Z,18.70
2019-03-02T01:39:32.166Z,14.80
2019-03-02T01:42:00.622Z,19.77
2019-03-02T01:44:29.327Z,16.83
2019-03-02T01:46:57.784Z,19.27
2019-03-02T01:49:26.216Z,19.73
2019-03-02T01:51:58.035Z,26.60
2019-03-02T01:54:24.883Z,21.03
2019-03-02T01:56:53.428Z,16.70
2019-03-02T01:59:21.856Z,15.50
2019-03-02T02:01:50.631Z,14.70
2019-03-02T02:04:22.626Z,14.90
2019-03-02T02:06:49.548Z,18.77
2019-03-02T02:09:18.285Z,18.00
2019-03-02T02:11:49.762Z,17.10
2019-03-02T02:14:18.539Z,17.70
2019-03-02T02:16:47.566Z,17.87
2019-03-02T02:19:16.037Z,18.57
2019-03-02T02:21:44.478Z,19.50
2019-03-02T02:24:12.948Z,18.80
2019-03-02T02:26:43.919Z,14.20
2019-03-02T02:29:11.540Z,18.40
2019-03-02T02:31:44.606Z,19.37
2019-03-02T02:34:10.140Z,16.70
2019-03-02T02:36:38.561Z,17.77
2019-03-02T02:39:07.570Z,16.27
2019-03-02T02:41:36.016Z,14.30
2019-03-02T02:44:04.689Z,15.10
2019-03-02T02:46:34.511Z,15.90
2019-03-02T02:49:05.365Z,18.63
2019-03-02T02:51:33.193Z,23.13
2019-03-02T02:54:01.723Z,15.57
2019-03-02T02:56:30.161Z,15.47
2019-03-02T02:59:01.605Z,15.40
2019-03-02T03:01:32.785Z,16.70
2019-03-02T03:04:00.763Z,17.07
2019-03-02T03:06:32.644Z,16.63
2019-03-02T03:08:59.516Z,17.33
2019-03-02T03:11:28.207Z,17.43
2019-03-02T03:13:56.673Z,15.60
2019-03-02T03:16:25.123Z,15.90
2019-03-02T03:18:53.844Z,14.97
2019-03-02T03:21:27.240Z,15.73
2019-03-02T03:23:54.139Z,15.40
2019-03-02T03:26:22.760Z,19.13
2019-03-02T03:28:51.513Z,20.77
2019-03-02T03:31:23.066Z,20.67
2019-03-02T03:33:50.404Z,16.50
2019-03-02T03:36:18.831Z,18.43
2019-03-02T03:38:47.563Z,21.13
2019-03-02T03:41:15.991Z,24.07
2019-03-02T03:43:44.574Z,21.53
2019-03-02T03:46:17.803Z,23.77
2019-03-02T03:48:43.499Z,26.30
2019-03-02T03:51:12.016Z,23.57
2019-03-02T03:53:40.536Z,23.57
2019-03-02T03:56:09.907Z,23.83
2019-03-02T03:58:39.818Z,23.77
2019-03-02T04:01:17.266Z,26.20
2019-03-02T04:03:38.956Z,24.70
2019-03-02T04:06:07.434Z,26.00
2019-03-02T04:08:35.935Z,30.93
2019-03-02T04:11:05.765Z,27.97
2019-03-02T04:13:39.403Z,25.00
2019-03-02T04:16:04.995Z,28.03
2019-03-02T04:18:55.160Z,29.37
2019-03-02T04:21:29.839Z,27.97
2019-03-02T04:24:01.297Z,30.80
2019-03-02T04:26:31.662Z,30.47
2019-03-02T04:28:58.785Z,32.93
2019-03-02T04:31:27.225Z,28.60
2019-03-02T04:33:55.760Z,31.80
2019-03-02T04:36:24.448Z,32.50
2019-03-02T04:38:52.887Z,29.70
2019-03-02T04:41:21.614Z,28.43
2019-03-02T04:43:50.801Z,30.47
2019-03-02T04:46:20.488Z,35.10
2019-03-02T04:48:48.932Z,34.40
2019-03-02T04:51:17.382Z,36.20
2019-03-02T04:53:46.108Z,30.67
2019-03-02T04:56:14.565Z,39.57
2019-03-02T04:58:43.700Z,31.37
2019-03-02T05:01:13.230Z,29.77
2019-03-02T05:03:41.798Z,31.57
2019-03-02T05:06:10.571Z,34.13
2019-03-02T05:08:41.205Z,28.57
2019-03-02T05:11:09.477Z,28.30
2019-03-02T05:13:37.911Z,33.23
2019-03-02T05:16:06.623Z,32.30
2019-03-02T05:18:35.076Z,36.27
2019-03-02T05:21:03.775Z,33.70
2019-03-02T05:23:32.227Z,32.17
2019-03-02T05:26:00.935Z,31.37
2019-03-02T05:28:34.448Z,31.93
2019-03-02T05:31:06.302Z,33.53
2019-03-02T05:33:33.496Z,30.70
2019-03-02T05:36:02.243Z,28.63
2019-03-02T05:38:30.689Z,28.93
2019-03-02T05:40:59.377Z,30.00
2019-03-02T05:43:29.310Z,30.30
2019-03-02T05:45:57.841Z,27.03
2019-03-02T05:48:26.303Z,30.20
2019-03-02T05:50:55.046Z,26.43
2019-03-02T05:53:26.799Z,34.83
2019-03-02T05:55:54.934Z,26.97
2019-03-02T05:58:23.767Z,28.97
2019-03-02T06:00:52.486Z,33.53
2019-03-02T06:03:20.941Z,32.37
2019-03-02T06:05:49.519Z,30.10
2019-03-02T06:08:17.956Z,35.97
2019-03-02T06:10:46.719Z,34.67
2019-03-02T06:13:15.433Z,35.37
2019-03-02T06:15:46.348Z,38.07
2019-03-02T06:18:14.313Z,108.47
2019-03-02T06:20:44.612Z,40.97
2019-03-02T06:23:13.229Z,41.63
2019-03-02T06:25:41.678Z,47.10
2019-03-02T06:28:10.118Z,44.17
2019-03-02T06:30:40.577Z,49.20
2019-03-02T06:33:09.484Z,47.70
2019-03-02T06:35:38.052Z,49.07
2019-03-02T06:38:06.657Z,49.90
2019-03-02T06:40:35.364Z,51.57
2019-03-02T06:43:03.795Z,46.40
2019-03-02T06:45:32.249Z,48.93
2019-03-02T06:48:00.964Z,47.87
2019-03-02T06:50:31.692Z,55.83
2019-03-02T06:53:01.470Z,66.37
2019-03-02T06:55:29.869Z,52.70
2019-03-02T06:57:58.369Z,55.63
2019-03-02T07:00:27.109Z,55.03
2019-03-02T07:02:55.591Z,57.67
2019-03-02T07:05:24.031Z,59.97
2019-03-02T07:07:53.633Z,60.80
2019-03-02T07:10:23.513Z,62.13
2019-03-02T07:12:54.166Z,70.63
2019-03-02T07:15:22.877Z,64.73
2019-03-02T07:17:52.977Z,64.13
2019-03-02T07:20:23.968Z,63.80
2019-03-02T07:22:53.302Z,68.40
2019-03-02T07:25:21.775Z,71.43
2019-03-02T07:27:50.543Z,66.63
2019-03-02T07:30:19.008Z,63.60
2019-03-02T07:32:47.732Z,65.77
2019-03-02T07:35:19.477Z,71.57
2019-03-02T07:37:46.373Z,63.03
2019-03-02T07:40:14.815Z,63.53
2019-03-02T07:42:43.280Z,67.17
2019-03-02T07:45:14.627Z,62.00
2019-03-02T07:47:43.072Z,66.40
2019-03-02T07:50:12.337Z,55.17
2019-03-02T07:52:40.860Z,58.03
2019-03-02T07:55:14.791Z,73.10
2019-03-02T07:57:44.783Z,67.73
2019-03-02T08:00:18.512Z,68.50
2019-03-02T08:02:46.981Z,65.40
2019-03-02T08:05:15.799Z,66.10
2019-03-02T08:07:44.803Z,60.10
2019-03-02T08:10:14.079Z,67.80
2019-03-02T08:12:42.515Z,58.03
2019-03-02T08:15:13.958Z,61.83
2019-03-02T08:17:45.670Z,58.47
2019-03-02T08:20:16.502Z,66.77
2019-03-02T08:22:46.277Z,67.93
2019-03-02T08:25:15.548Z,69.23
2019-03-02T08:27:45.015Z,69.17
2019-03-02T08:30:16.519Z,64.37
2019-03-02T08:32:45.270Z,66.30
2019-03-02T08:35:17.243Z,68.13
2019-03-02T08:37:45.708Z,65.50
2019-03-02T08:40:19.325Z,74.60
2019-03-02T08:42:45.868Z,67.37
2019-03-02T08:45:18.182Z,71.10
2019-03-02T08:47:46.628Z,67.73
2019-03-02T08:50:17.563Z,71.93
2019-03-02T08:52:46.520Z,71.77
2019-03-02T08:55:16.396Z,76.10
2019-03-02T08:57:45.171Z,78.67
2019-03-02T09:00:19.326Z,70.77
2019-03-02T09:02:47.855Z,90.77
2019-03-02T09:05:16.629Z,84.77
2019-03-02T09:07:46.138Z,83.37
2019-03-02T09:10:15.915Z,84.10
2019-03-02T09:12:44.732Z,94.63
2019-03-02T09:15:22.233Z,88.10
2019-03-02T09:17:54.184Z,89.80
2019-03-02T09:20:23.918Z,98.53
2019-03-02T09:22:56.422Z,94.37
2019-03-02T09:25:23.927Z,103.70
2019-03-02T09:27:53.407Z,100.83
2019-03-02T09:30:22.014Z,92.50
2019-03-02T09:32:52.340Z,99.13
2019-03-02T09:35:21.010Z,84.07
2019-03-02T09:37:49.471Z,87.10
2019-03-02T09:40:24.426Z,89.33
2019-03-02T09:42:53.388Z,92.00
2019-03-02T09:45:22.063Z,87.40
2019-03-02T09:47:52.275Z,92.63
2019-03-02T09:50:21.939Z,86.93
2019-03-02T09:52:50.956Z,87.30
2019-03-02T09:55:20.356Z,77.70
2019-03-02T09:57:49.616Z,84.50
2019-03-02T10:00:25.340Z,92.23
2019-03-02T10:02:53.659Z,88.13
2019-03-02T10:05:22.296Z,78.87
2019-03-02T10:07:50.803Z,83.87
2019-03-02T10:10:19.910Z,87.17
2019-03-02T10:12:51.569Z,82.87
2019-03-02T10:15:23.201Z,82.83
2019-03-02T10:17:51.947Z,83.83
2019-03-02T10:20:20.672Z,83.90
2019-03-02T10:22:49.152Z,77.23
2019-03-02T10:25:18.020Z,79.70
2019-03-02T10:27:47.099Z,76.17
2019-03-02T10:30:18.183Z,75.27
2019-03-02T10:32:46.643Z,77.23
2019-03-02T10:35:17.163Z,70.23
2019-03-02T10:37:45.963Z,73.73
2019-03-02T10:40:18.578Z,73.23
2019-03-02T10:42:47.108Z,65.50
2019-03-02T10:45:20.088Z,62.37
2019-03-02T10:47:48.609Z,71.13
2019-03-02T10:50:22.929Z,67.07
2019-03-02T10:52:50.044Z,75.03
2019-03-02T10:55:20.351Z,79.43
2019-03-02T10:57:49.468Z,72.07
2019-03-02T11:00:29.395Z,70.97
2019-03-02T11:03:00.274Z,76.63
2019-03-02T11:05:42.415Z,74.77
2019-03-02T11:08:21.873Z,68.53
2019-03-02T11:11:06.989Z,69.00
2019-03-02T11:13:39.856Z,76.43
2019-03-02T11:16:25.459Z,66.83
2019-03-02T11:19:07.928Z,67.03
2019-03-02T11:21:55.027Z,70.13
2019-03-02T11:24:25.680Z,70.20
2019-03-02T11:26:55.840Z,61.97
2019-03-02T11:29:50.822Z,56.60
2019-03-02T11:32:16.868Z,62.63
2019-03-02T11:35:06.843Z,60.70
2019-03-02T11:37:53.877Z,68.80
2019-03-02T11:40:25.807Z,58.07
2019-03-02T11:43:05.149Z,54.70
2019-03-02T11:45:52.050Z,60.33
2019-03-02T11:48:24.558Z,58.33
2019-03-02T11:51:03.827Z,52.00
2019-03-02T11:53:52.953Z,51.10
2019-03-02T11:56:42.998Z,43.13
2019-03-02T11:59:14.373Z,44.73
2019-03-02T12:01:53.339Z,49.37
2019-03-02T12:04:23.479Z,44.80
2019-03-02T12:06:57.563Z,47.57
2019-03-02T12:09:36.353Z,44.83
2019-03-02T12:12:19.272Z,42.27
2019-03-02T12:14:52.328Z,42.83
2019-03-02T12:17:31.615Z,43.00
2019-03-02T12:20:03.452Z,40.03
2019-03-02T12:22:34.395Z,41.20
2019-03-02T12:25:24.906Z,45.27
2019-03-02T12:27:58.850Z,36.83
2019-03-02T12:30:27.161Z,32.37
2019-03-02T12:32:57.936Z,31.50
2019-03-02T12:35:34.379Z,36.03
2019-03-02T12:38:02.941Z,32.93
2019-03-02T12:40:49.070Z,39.70
2019-03-02T12:43:40.497Z,39.37
2019-03-02T12:46:12.708Z,35.20
2019-03-02T12:48:49.959Z,32.40
2019-03-02T12:51:22.954Z,33.07
2019-03-02T12:54:06.219Z,35.07
2019-03-02T12:56:41.890Z,34.07
2019-03-02T12:59:14.183Z,38.10
2019-03-02T13:01:56.083Z,32.47
2019-03-02T13:04:41.776Z,31.63
2019-03-02T13:07:14.333Z,32.13
2019-03-02T13:09:48.112Z,36.73
2019-03-02T13:12:26.750Z,32.80
2019-03-02T13:15:06.054Z,32.33
2019-03-02T13:17:37.266Z,29.57
2019-03-02T13:20:07.678Z,39.40
2019-03-02T13:22:37.885Z,33.47
2019-03-02T13:25:25.979Z,29.90
2019-03-02T13:27:56.769Z,30.67
2019-03-02T13:30:29.515Z,31.40
2019-03-02T13:33:02.416Z,28.70
2019-03-02T13:35:35.678Z,25.47
2019-03-02T13:38:08.475Z,24.30
2019-03-02T13:40:38.640Z,26.37
2019-03-02T13:43:17.551Z,28.20
2019-03-02T13:45:55.371Z,39.50
2019-03-02T13:48:41.274Z,30.10
2019-03-02T13:51:30.143Z,28.17
2019-03-02T13:54:15.707Z,30.50
2019-03-02T13:57:04.724Z,28.23
2019-03-02T13:59:36.002Z,29.80
2019-03-02T14:02:15.312Z,29.87
2019-03-02T14:05:04.816Z,34.80
2019-03-02T14:07:37.936Z,30.47
2019-03-02T14:10:28.034Z,27.70
2019-03-02T14:13:13.740Z,32.53
2019-03-02T14:15:43.926Z,33.50
2019-03-02T14:18:19.649Z,34.03
2019-03-02T14:21:04.741Z,33.00
2019-03-02T14:23:35.194Z,26.00
2019-03-02T14:26:17.240Z,32.00
2019-03-02T14:28:50.263Z,29.40
2019-03-02T14:31:20.692Z,31.27
2019-03-02T14:33:50.823Z,29.20
2019-03-02T14:36:40.195Z,31.50
2019-03-02T14:39:10.389Z,28.40
2019-03-02T14:41:55.914Z,35.63
2019-03-02T14:44:30.296Z,32.30
2019-03-02T14:47:09.345Z,30.90
2019-03-02T14:49:45.485Z,27.70
2019-03-02T14:52:15.598Z,37.97
2019-03-02T14:54:48.091Z,33.40
2019-03-02T14:57:20.978Z,32.80
2019-03-02T15:00:05.158Z,27.83
2019-03-02T15:02:52.529Z,36.13
2019-03-02T15:05:39.896Z,33.23
2019-03-02T15:08:10.140Z,28.17
2019-03-02T15:11:00.395Z,33.13
2019-03-02T15:13:30.816Z,33.07
2019-03-02T15:16:10.349Z,26.97
2019-03-02T15:18:43.391Z,25.67
2019-03-02T15:21:27.413Z,32.10
2019-03-02T15:23:59.375Z,25.43
2019-03-02T15:26:39.385Z,23.93
2019-03-02T15:29:09.963Z,25.30
2019-03-02T15:31:44.612Z,27.90
2019-03-02T15:34:22.945Z,30.27
2019-03-02T15:37:06.348Z,26.90
2019-03-02T15:39:36.480Z,24.83
2019-03-02T15:42:09.624Z,27.60
2019-03-02T15:44:51.890Z,29.70
2019-03-02T15:47:31.181Z,28.60
2019-03-02T15:50:01.414Z,21.30
2019-03-02T15:52:44.958Z,27.57
2019-03-02T15:55:15.401Z,17.80
2019-03-02T15:58:00.434Z,16.87
2019-03-02T16:00:39.578Z,17.27
2019-03-02T16:03:15.126Z,16.30
2019-03-02T16:06:00.658Z,21.87
2019-03-02T16:08:42.496Z,19.63
2019-03-02T16:11:24.082Z,18.80
2019-03-02T16:14:00.054Z,20.97
2019-03-02T16:16:34.105Z,21.40
2019-03-02T16:19:10.092Z,18.13
2019-03-02T16:21:42.603Z,17.30
2019-03-02T16:24:13.150Z,21.80
2019-03-02T16:26:58.477Z,18.20
2019-03-02T16:29:28.678Z,22.80
2019-03-02T16:32:01.529Z,18.90
2019-03-02T16:34:34.705Z,30.83
2019-03-02T16:37:17.265Z,24.00
2019-03-02T16:39:48.841Z,36.67
2019-03-02T16:42:27.584Z,27.90
2019-03-02T16:44:57.779Z,24.20
2019-03-02T16:47:28.449Z,33.80
2019-03-02T16:50:01.297Z,31.27
2019-03-02T16:52:48.512Z,34.77
2019-03-02T16:55:33.689Z,35.13
2019-03-02T16:58:09.556Z,35.37
2019-03-02T17:00:48.387Z,34.43
2019-03-02T17:03:16.893Z,38.57
2019-03-02T17:05:52.823Z,36.80
2019-03-02T17:08:23.042Z,36.27
2019-03-02T17:11:07.884Z,37.00
2019-03-02T17:13:38.264Z,30.77
2019-03-02T17:16:08.371Z,32.43
2019-03-02T17:18:38.527Z,30.83
2019-03-02T17:21:24.509Z,38.87
2019-03-02T17:23:54.897Z,35.97
2019-03-02T17:26:30.765Z,35.73
2019-03-02T17:29:07.938Z,40.70
2019-03-02T17:31:42.817Z,40.47
2019-03-02T17:34:19.016Z,39.17
2019-03-02T17:37:06.931Z,36.10
2019-03-02T17:39:39.588Z,37.73
2019-03-02T17:42:09.673Z,36.70
2019-03-02T17:44:39.880Z,47.93
2019-03-02T17:47:18.599Z,48.30
2019-03-02T17:50:04.907Z,41.23
2019-03-02T17:52:38.217Z,39.37
2019-03-02T17:55:10.997Z,43.07
2019-03-02T17:57:54.458Z,42.10
2019-03-02T18:00:25.079Z,44.80
2019-03-02T18:03:01.095Z,38.97
2019-03-02T18:05:33.620Z,44.53
2019-03-02T18:08:13.707Z,41.53
2019-03-02T18:10:56.340Z,39.30
2019-03-02T18:13:43.266Z,47.63
2019-03-02T18:16:16.787Z,48.90
2019-03-02T18:18:45.276Z,46.83
2019-03-02T18:21:14.157Z,44.10
2019-03-02T18:23:43.039Z,65.87
2019-03-02T18:26:11.955Z,46.57
2019-03-02T18:28:40.490Z,41.13
2019-03-02T18:31:09.424Z,43.00
2019-03-02T18:33:39.878Z,42.67
2019-03-02T18:36:09.850Z,39.23
2019-03-02T18:38:39.135Z,42.00
2019-03-02T18:41:07.593Z,46.20
2019-03-02T18:43:36.047Z,45.40
2019-03-02T18:46:04.713Z,37.50
2019-03-02T18:48:52.982Z,33.83
2019-03-02T18:51:25.813Z,37.67
2019-03-02T18:53:56.315Z,36.07
2019-03-02T18:56:25.124Z,38.90
2019-03-02T18:59:00.076Z,40.10
2019-03-02T19:01:23.830Z,38.70
2019-03-02T19:03:52.670Z,38.03
2019-03-02T19:06:23.023Z,36.50
2019-03-02T19:08:54.248Z,39.43
2019-03-02T19:11:21.911Z,42.73
2019-03-02T19:13:50.723Z,44.10
2019-03-02T19:16:19.310Z,53.77
2019-03-02T19:18:47.772Z,79.43
2019-03-02T19:21:16.564Z,91.97
2019-03-02T19:23:45.397Z,76.90
2019-03-02T19:26:13.870Z,69.03
2019-03-02T19:28:42.353Z,62.80
2019-03-02T19:31:11.231Z,61.47
2019-03-02T19:33:39.729Z,60.67
2019-03-02T19:36:08.502Z,61.27
2019-03-02T19:38:36.990Z,59.60
2019-03-02T19:41:05.432Z,61.77
2019-03-02T19:43:34.175Z,61.57
2019-03-02T19:46:02.732Z,63.63
2019-03-02T19:48:31.267Z,57.40
2019-03-02T19:50:59.745Z,62.67
2019-03-02T19:53:28.234Z,57.60
2019-03-02T19:55:57.098Z,57.10
2019-03-02T19:58:25.542Z,54.80
2019-03-02T20:00:54.023Z,57.10
2019-03-02T20:03:22.767Z,55.80
2019-03-02T20:05:51.254Z,58.70
2019-03-02T20:08:20.007Z,50.33
2019-03-02T20:10:48.525Z,52.97
2019-03-02T20:13:17.044Z,59.00
2019-03-02T20:15:45.476Z,52.50
2019-03-02T20:18:13.949Z,47.63
2019-03-02T20:20:42.539Z,44.57
2019-03-02T20:23:11.354Z,45.70
2019-03-02T20:25:40.673Z,43.27
2019-03-02T20:28:09.459Z,40.93
2019-03-02T20:30:37.910Z,47.13
2019-03-02T20:33:06.452Z,42.50
2019-03-02T20:35:35.784Z,40.87
2019-03-02T20:38:04.918Z,37.73
2019-03-02T20:40:33.609Z,44.47
2019-03-02T20:43:02.378Z,38.70
2019-03-02T20:45:30.952Z,36.60
2019-03-02T20:47:59.401Z,32.23
2019-03-02T20:50:27.879Z,31.60
2019-03-02T20:52:56.709Z,25.63
2019-03-02T20:55:25.492Z,22.53
2019-03-02T20:57:54.399Z,20.97
2019-03-02T21:00:31.241Z,20.57
2019-03-02T21:02:59.876Z,19.00
2019-03-02T21:05:28.958Z,20.13
2019-03-02T21:07:57.540Z,18.80
2019-03-02T21:10:32.000Z,19.70
2019-03-02T21:13:00.604Z,20.73
2019-03-02T21:15:35.820Z,17.83
2019-03-02T21:18:05.433Z,19.90
2019-03-02T21:20:36.375Z,14.93
2019-03-02T21:23:05.046Z,18.93
2019-03-02T21:25:33.548Z,16.73
2019-03-02T21:28:02.095Z,12.83
2019-03-02T21:30:30.850Z,13.30
2019-03-02T21:32:59.600Z,12.90
2019-03-02T21:35:28.059Z,10.13
2019-03-02T21:37:56.836Z,12.60
2019-03-02T21:40:30.522Z,12.20
2019-03-02T21:42:58.977Z,8.40
2019-03-02T21:45:28.421Z,8.37
2019-03-02T21:47:57.178Z,10.53
2019-03-02T21:50:43.596Z,13.27
2019-03-02T21:53:12.178Z,9.77
2019-03-02T21:55:40.624Z,9.03
2019-03-02T21:58:09.080Z,12.00
2019-03-02T22:00:37.604Z,15.03
2019-03-02T22:03:06.376Z,17.07
2019-03-02T22:05:34.848Z,11.83
2019-03-02T22:08:03.333Z,15.03
2019-03-02T22:10:43.762Z,7.23
2019-03-02T22:13:12.639Z,7.27
2019-03-02T22:15:41.195Z,9.10
2019-03-02T22:18:09.750Z,8.63
2019-03-02T22:20:38.599Z,9.90
2019-03-02T22:23:07.372Z,15.73
2019-03-02T22:25:35.927Z,12.80
2019-03-02T22:28:04.878Z,6.40
2019-03-02T22:30:33.762Z,7.77
2019-03-02T22:33:02.277Z,7.97
2019-03-02T22:35:31.019Z,9.03
2019-03-02T22:37:59.868Z,6.60
2019-03-02T22:40:28.832Z,10.17
2019-03-02T22:42:57.397Z,12.33
2019-03-02T22:45:25.975Z,8.30
2019-03-02T22:47:54.524Z,11.23
2019-03-02T22:50:26.685Z,13.23
2019-03-02T22:52:55.229Z,10.93
2019-03-02T22:55:23.857Z,10.07
2019-03-02T22:57:52.506Z,18.60
2019-03-02T23:00:30.382Z,12.10
2019-03-02T23:02:57.816Z,9.67
2019-03-02T23:05:26.670Z,10.17
2019-03-02T23:07:55.158Z,10.40
2019-03-02T23:10:24.138Z,12.73
2019-03-02T23:12:53.092Z,11.77
2019-03-02T23:15:22.970Z,9.73
2019-03-02T23:17:51.530Z,14.80
2019-03-02T23:20:20.290Z,14.63
2019-03-02T23:22:49.156Z,15.00
2019-03-02T23:25:17.664Z,11.70
2019-03-02T23:27:46.481Z,10.70
2019-03-02T23:30:22.693Z,11.70
2019-03-02T23:32:51.495Z,11.73
2019-03-02T23:35:20.278Z,19.20
2019-03-02T23:37:48.743Z,12.33
2019-03-02T23:40:19.613Z,14.30
2019-03-02T23:42:48.397Z,18.97
2019-03-02T23:45:18.002Z,15.50
2019-03-02T23:47:46.626Z,15.00
2019-03-02T23:50:15.481Z,17.30
2019-03-02T23:52:44.390Z,17.90
2019-03-02T23:55:14.312Z,15.23
2019-03-02T23:57:42.821Z,20.20
